createdAt,value
2022-11-22T00:01:15.586Z,5.68
2022-11-22T00:03:22.641Z,5.74
2022-11-22T00:05:27.951Z,5.80
2022-11-22T00:07:33.846Z,5.84
2022-11-22T00:09:42.870Z,5.87
2022-11-22T00:11:48.627Z,5.89
2022-11-22T00:13:53.958Z,5.92
2022-11-22T00:16:05.568Z,5.97
2022-11-22T00:18:11.027Z,6.00
2022-11-22T00:20:18.005Z,6.03
2022-11-22T00:22:24.301Z,6.08
2022-11-22T00:24:29.670Z,6.12
2022-11-22T00:26:37.830Z,6.16
2022-11-22T00:28:44.572Z,6.18
2022-11-22T00:30:49.990Z,6.20
2022-11-22T00:32:55.412Z,6.24
2022-11-22T00:35:03.740Z,6.20
2022-11-22T00:37:09.355Z,6.28
2022-11-22T00:39:14.745Z,6.28
2022-11-22T00:41:21.137Z,6.28
2022-11-22T00:43:29.678Z,6.28
2022-11-22T00:45:35.110Z,6.30
2022-11-22T00:47:41.622Z,6.33
2022-11-22T00:49:47.038Z,6.33
2022-11-22T00:51:52.705Z,6.37
2022-11-22T00:53:58.916Z,6.40
2022-11-22T00:56:04.301Z,6.42
2022-11-22T00:58:09.717Z,6.42
2022-11-22T01:00:20.577Z,6.41
2022-11-22T01:02:25.967Z,6.41
2022-11-22T01:04:31.599Z,6.40
2022-11-22T01:06:37.844Z,6.42
2022-11-22T01:08:43.362Z,6.40
2022-11-22T01:10:48.804Z,6.41
2022-11-22T01:12:55.108Z,6.43
2022-11-22T01:15:00.656Z,6.41
2022-11-22T01:17:10.705Z,6.41
2022-11-22T01:19:17.658Z,6.38
2022-11-22T01:21:23.073Z,6.35
2022-11-22T01:23:28.681Z,6.31
2022-11-22T01:25:34.930Z,6.30
2022-11-22T01:27:41.190Z,6.25
2022-11-22T01:29:46.595Z,6.25
2022-11-22T01:31:52.872Z,6.23
2022-11-22T01:34:02.960Z,6.22
2022-11-22T01:36:09.009Z,6.21
2022-11-22T01:38:15.594Z,6.22
2022-11-22T01:40:21.214Z,6.23
2022-11-22T01:42:26.844Z,6.10
2022-11-22T01:44:36.710Z,6.15
2022-11-22T01:46:43.212Z,6.12
2022-11-22T01:49:04.085Z,6.08
2022-11-22T01:51:24.112Z,6.06
2022-11-22T01:53:40.112Z,5.80
2022-11-22T01:55:47.587Z,6.08
2022-11-22T01:57:54.338Z,6.05
2022-11-22T02:00:08.348Z,6.04
2022-11-22T02:02:21.020Z,6.03
2022-11-22T02:04:35.128Z,6.00
2022-11-22T02:06:55.525Z,5.98
2022-11-22T02:09:10.958Z,5.93
2022-11-22T02:11:17.214Z,5.91
2022-11-22T02:13:27.696Z,5.89
2022-11-22T02:15:33.694Z,5.87
2022-11-22T02:17:39.957Z,5.86
2022-11-22T02:19:53.590Z,5.79
2022-11-22T02:22:11.778Z,5.76
2022-11-22T02:24:29.696Z,5.72
2022-11-22T02:26:38.989Z,5.67
2022-11-22T02:28:44.658Z,5.65
2022-11-22T02:30:50.428Z,5.63
2022-11-22T02:32:56.865Z,5.63
2022-11-22T02:35:03.825Z,5.62
2022-11-22T02:37:09.317Z,5.61
2022-11-22T02:39:23.046Z,5.56
2022-11-22T02:41:28.625Z,5.54
2022-11-22T02:43:42.933Z,5.35
2022-11-22T02:45:49.575Z,5.56
2022-11-22T02:47:54.924Z,5.56
2022-11-22T02:50:00.574Z,5.51
2022-11-22T02:52:09.060Z,5.51
2022-11-22T02:54:14.513Z,5.47
2022-11-22T02:56:20.907Z,5.44
2022-11-22T02:58:27.206Z,5.43
2022-11-22T03:00:36.016Z,5.42
2022-11-22T03:02:41.590Z,5.41
2022-11-22T03:04:47.847Z,5.37
2022-11-22T03:06:53.984Z,5.32
2022-11-22T03:09:00.484Z,5.30
2022-11-22T03:11:08.852Z,5.27
2022-11-22T03:13:14.279Z,5.18
2022-11-22T03:15:19.924Z,5.22
2022-11-22T03:17:29.501Z,5.21
2022-11-22T03:19:35.311Z,5.18
2022-11-22T03:21:42.254Z,5.16
2022-11-22T03:23:48.449Z,5.14
2022-11-22T03:25:53.897Z,5.13
2022-11-22T03:28:00.777Z,5.11
2022-11-22T03:30:10.065Z,5.08
2022-11-22T03:32:15.656Z,5.03
2022-11-22T03:34:23.788Z,4.99
2022-11-22T03:36:30.045Z,4.93
2022-11-22T03:38:38.420Z,4.88
2022-11-22T03:40:43.817Z,4.80
2022-11-22T03:42:50.213Z,4.69
2022-11-22T03:44:55.957Z,4.66
2022-11-22T03:47:01.340Z,4.60
2022-11-22T03:49:08.509Z,4.61
2022-11-22T03:51:16.941Z,4.60
2022-11-22T03:53:23.345Z,4.58
2022-11-22T03:55:29.642Z,4.56
2022-11-22T03:57:35.082Z,4.53
2022-11-22T03:59:40.634Z,4.53
2022-11-22T04:01:47.170Z,4.51
2022-11-22T04:03:53.251Z,4.49
2022-11-22T04:05:59.114Z,4.46
2022-11-22T04:08:10.104Z,4.37
2022-11-22T04:10:19.344Z,4.28
2022-11-22T04:12:27.610Z,4.18
2022-11-22T04:14:50.414Z,4.15
2022-11-22T04:16:56.298Z,4.09
2022-11-22T04:19:03.337Z,3.99
2022-11-22T04:21:25.379Z,4.03
2022-11-22T04:23:34.422Z,4.02
2022-11-22T04:25:39.861Z,4.00
2022-11-22T04:27:46.079Z,4.00
2022-11-22T04:29:51.490Z,3.96
2022-11-22T04:32:12.574Z,3.95
2022-11-22T04:34:19.018Z,3.99
2022-11-22T04:36:24.675Z,4.01
2022-11-22T04:38:33.127Z,3.96
2022-11-22T04:40:40.227Z,3.93
2022-11-22T04:43:03.567Z,3.95
2022-11-22T04:45:11.452Z,3.95
2022-11-22T04:47:44.992Z,3.94
2022-11-22T04:49:54.306Z,3.98
2022-11-22T04:52:15.149Z,3.94
2022-11-22T04:54:24.264Z,4.03
2022-11-22T04:56:30.715Z,4.01
2022-11-22T04:58:36.438Z,4.06
2022-11-22T05:00:43.891Z,3.41
2022-11-22T05:02:49.314Z,4.01
2022-11-22T05:04:54.712Z,4.01
2022-11-22T05:07:01.209Z,4.03
2022-11-22T05:09:08.718Z,4.04
2022-11-22T05:11:16.912Z,4.06
2022-11-22T05:13:26.752Z,4.07
2022-11-22T05:15:33.624Z,4.08
2022-11-22T05:17:38.988Z,4.09
2022-11-22T05:19:49.181Z,4.07
2022-11-22T05:21:55.264Z,3.98
2022-11-22T05:23:58.018Z,4.00
2022-11-22T05:26:06.679Z,4.06
2022-11-22T05:28:15.101Z,3.95
2022-11-22T05:30:20.784Z,4.02
2022-11-22T05:32:27.040Z,3.97
2022-11-22T05:34:32.461Z,3.92
2022-11-22T05:36:38.782Z,3.89
2022-11-22T05:38:45.309Z,3.88
2022-11-22T05:40:50.690Z,3.88
2022-11-22T05:42:56.943Z,3.89
2022-11-22T05:45:07.147Z,3.84
2022-11-22T05:47:13.383Z,3.88
2022-11-22T05:49:18.857Z,3.85
2022-11-22T05:51:34.133Z,3.83
2022-11-22T05:53:42.874Z,3.83
2022-11-22T05:55:48.323Z,3.68
2022-11-22T05:57:54.599Z,3.77
2022-11-22T06:00:00.149Z,3.77
2022-11-22T06:02:20.136Z,3.73
2022-11-22T06:04:26.499Z,3.73
2022-11-22T06:06:32.347Z,3.73
2022-11-22T06:08:41.213Z,3.70
2022-11-22T06:10:47.441Z,3.69
2022-11-22T06:12:59.573Z,3.69
2022-11-22T06:15:06.631Z,3.69
2022-11-22T06:17:13.071Z,3.69
2022-11-22T06:19:21.221Z,3.69
2022-11-22T06:21:29.509Z,3.68
2022-11-22T06:23:36.857Z,3.63
2022-11-22T06:25:42.195Z,3.69
2022-11-22T06:27:50.614Z,3.67
2022-11-22T06:29:56.902Z,3.67
2022-11-22T06:32:04.265Z,3.66
2022-11-22T06:34:10.154Z,3.59
2022-11-22T06:36:22.080Z,3.66
2022-11-22T06:38:27.444Z,3.67
2022-11-22T06:40:32.990Z,3.67
2022-11-22T06:42:39.244Z,3.68
2022-11-22T06:44:44.660Z,3.66
2022-11-22T06:46:50.518Z,3.70
2022-11-22T06:48:57.224Z,3.73
2022-11-22T06:51:03.686Z,3.76
2022-11-22T06:53:32.368Z,3.78
2022-11-22T06:55:58.207Z,3.80
2022-11-22T06:58:03.660Z,3.80
2022-11-22T07:00:11.536Z,3.83
2022-11-22T07:02:18.282Z,3.84
2022-11-22T07:04:23.866Z,3.83
2022-11-22T07:06:32.486Z,3.86
2022-11-22T07:08:42.028Z,3.19
2022-11-22T07:10:47.474Z,3.90
2022-11-22T07:12:53.158Z,3.88
2022-11-22T07:14:59.437Z,3.80
2022-11-22T07:17:06.753Z,3.85
2022-11-22T07:19:14.058Z,3.89
2022-11-22T07:21:24.378Z,3.90
2022-11-22T07:23:29.773Z,3.94
2022-11-22T07:25:38.196Z,3.98
2022-11-22T07:27:44.469Z,4.02
2022-11-22T07:29:49.909Z,4.07
2022-11-22T07:31:55.310Z,4.09
2022-11-22T07:34:03.618Z,4.08
2022-11-22T07:36:13.258Z,4.15
2022-11-22T07:38:18.984Z,4.16
2022-11-22T07:40:25.356Z,4.19
2022-11-22T07:42:33.599Z,4.23
2022-11-22T07:44:39.405Z,4.28
2022-11-22T07:46:45.732Z,4.31
2022-11-22T07:48:52.014Z,4.35
2022-11-22T07:50:57.487Z,4.39
2022-11-22T07:53:07.334Z,4.43
2022-11-22T07:55:14.408Z,4.47
2022-11-22T07:57:20.291Z,4.46
2022-11-22T07:59:29.685Z,4.49
2022-11-22T08:01:35.642Z,4.53
2022-11-22T08:03:42.188Z,4.54
2022-11-22T08:05:48.476Z,4.57
2022-11-22T08:07:56.238Z,4.52
2022-11-22T08:10:04.464Z,4.59
2022-11-22T08:12:10.852Z,4.64
2022-11-22T08:14:16.351Z,4.65
2022-11-22T08:16:24.543Z,4.67
2022-11-22T08:18:30.899Z,4.72
2022-11-22T08:20:36.526Z,4.76
2022-11-22T08:22:43.935Z,4.81
2022-11-22T08:24:50.132Z,4.88
2022-11-22T08:26:56.005Z,4.90
2022-11-22T08:29:03.785Z,4.95
2022-11-22T08:31:13.839Z,4.99
2022-11-22T08:33:22.896Z,5.04
2022-11-22T08:35:28.261Z,5.02
2022-11-22T08:37:34.621Z,5.06
2022-11-22T08:39:40.432Z,5.13
2022-11-22T08:41:45.956Z,5.11
2022-11-22T08:43:53.285Z,5.20
2022-11-22T08:46:03.537Z,5.22
2022-11-22T08:48:09.698Z,5.25
2022-11-22T08:50:20.671Z,5.28
2022-11-22T08:52:26.440Z,5.29
2022-11-22T08:54:36.303Z,5.36
2022-11-22T08:56:44.447Z,5.40
2022-11-22T08:58:50.925Z,5.43
2022-11-22T09:00:56.618Z,5.50
2022-11-22T09:03:03.716Z,5.58
2022-11-22T09:05:10.037Z,5.63
2022-11-22T09:09:45.294Z,5.47
2022-11-22T09:11:50.982Z,5.81
2022-11-22T09:13:56.427Z,5.86
2022-11-22T09:16:06.194Z,5.92
2022-11-22T09:18:11.597Z,5.98
2022-11-22T09:20:17.169Z,6.03
2022-11-22T09:22:28.580Z,6.09
2022-11-22T09:24:34.165Z,6.16
2022-11-22T09:26:39.587Z,6.22
2022-11-22T09:28:46.272Z,6.27
2022-11-22T09:30:51.606Z,6.30
2022-11-22T09:32:57.087Z,6.33
2022-11-22T09:35:03.492Z,6.38
2022-11-22T09:37:09.247Z,6.44
2022-11-22T09:39:17.527Z,6.41
2022-11-22T09:41:59.250Z,6.51
2022-11-22T09:44:24.912Z,6.57
2022-11-22T09:46:47.555Z,6.62
2022-11-22T09:49:31.151Z,6.67
2022-11-22T09:51:47.301Z,6.74
2022-11-22T09:54:03.965Z,6.83
2022-11-22T09:56:19.774Z,6.90
2022-11-22T09:58:34.929Z,6.96
2022-11-22T10:00:41.263Z,7.02
2022-11-22T10:03:00.636Z,7.06
2022-11-22T10:05:24.795Z,7.13
2022-11-22T10:07:40.618Z,7.18
2022-11-22T10:10:00.419Z,7.23
2022-11-22T10:12:26.226Z,7.21
2022-11-22T10:14:50.860Z,7.31
2022-11-22T10:17:07.028Z,7.37
2022-11-22T10:19:25.503Z,7.40
2022-11-22T10:21:31.527Z,7.45
2022-11-22T10:23:38.158Z,7.51
2022-11-22T10:25:52.999Z,7.56
2022-11-22T10:28:20.211Z,7.61
2022-11-22T10:30:25.769Z,7.71
2022-11-22T10:32:43.970Z,7.79
2022-11-22T10:35:23.777Z,7.84
2022-11-22T10:37:47.792Z,7.89
2022-11-22T10:40:13.099Z,7.97
2022-11-22T10:43:10.689Z,8.03
2022-11-22T10:45:31.145Z,8.12
2022-11-22T10:48:00.553Z,8.14
2022-11-22T10:50:23.211Z,8.24
2022-11-22T10:52:48.054Z,8.33
2022-11-22T10:55:12.597Z,8.41
2022-11-22T10:57:32.915Z,8.48
2022-11-22T11:00:06.396Z,8.56
2022-11-22T11:02:51.101Z,8.64
2022-11-22T11:05:03.284Z,8.69
2022-11-22T11:07:18.240Z,8.71
2022-11-22T11:12:07.578Z,8.77
2022-11-22T11:14:33.225Z,8.81
2022-11-22T11:16:42.857Z,8.83
2022-11-22T11:19:04.035Z,8.87
2022-11-22T11:21:12.756Z,8.92
2022-11-22T11:23:19.545Z,8.96
2022-11-22T11:25:35.214Z,9.00
2022-11-22T11:27:46.579Z,9.04
2022-11-22T11:30:05.014Z,9.07
2022-11-22T11:32:20.016Z,9.15
2022-11-22T11:34:32.668Z,9.26
2022-11-22T11:36:42.158Z,9.39
2022-11-22T11:38:58.348Z,9.55
2022-11-22T11:41:31.787Z,9.69
2022-11-22T11:43:45.702Z,9.82
2022-11-22T11:45:53.267Z,9.92
2022-11-22T11:47:59.018Z,9.99
2022-11-22T11:50:23.800Z,10.06
2022-11-22T11:52:32.230Z,10.08
2022-11-22T11:54:47.171Z,10.07
2022-11-22T11:56:55.959Z,10.06
2022-11-22T11:59:09.672Z,10.01
2022-11-22T12:01:21.691Z,10.02
2022-11-22T12:03:29.170Z,10.03
2022-11-22T12:05:38.420Z,10.04
2022-11-22T12:07:46.862Z,10.01
2022-11-22T12:09:55.571Z,10.03
2022-11-22T12:12:26.847Z,10.15
2022-11-22T12:14:55.891Z,10.17
2022-11-22T12:17:10.759Z,10.27
2022-11-22T12:19:30.936Z,10.32
2022-11-22T12:21:57.800Z,10.34
2022-11-22T12:24:42.755Z,10.44
2022-11-22T12:26:40.351Z,10.46
2022-11-22T12:28:46.915Z,10.41
2022-11-22T12:31:03.556Z,10.47
2022-11-22T12:33:24.036Z,8.36
2022-11-22T12:35:37.940Z,10.54
2022-11-22T12:37:57.450Z,10.57
2022-11-22T12:40:18.096Z,9.35
2022-11-22T12:42:32.699Z,10.58
2022-11-22T12:44:47.885Z,10.58
2022-11-22T12:47:04.028Z,10.61
2022-11-22T12:49:21.333Z,10.62
2022-11-22T12:51:40.164Z,10.65
2022-11-22T12:53:52.375Z,10.70
2022-11-22T12:56:11.271Z,10.74
2022-11-22T12:58:30.861Z,10.80
2022-11-22T13:00:47.380Z,10.77
2022-11-22T13:03:06.553Z,10.83
2022-11-22T13:05:23.476Z,10.89
2022-11-22T13:07:50.653Z,10.86
2022-11-22T13:10:12.165Z,10.92
2022-11-22T13:12:28.694Z,10.95
2022-11-22T13:14:41.393Z,10.98
2022-11-22T13:16:47.961Z,10.98
2022-11-22T13:19:03.559Z,10.98
2022-11-22T13:21:42.067Z,10.81
2022-11-22T13:24:20.230Z,10.93
2022-11-22T13:26:45.904Z,10.88
2022-11-22T13:28:54.689Z,10.85
2022-11-22T13:31:22.602Z,10.83
2022-11-22T13:33:30.349Z,10.81
2022-11-22T13:35:38.864Z,10.87
2022-11-22T13:37:49.262Z,10.88
2022-11-22T13:39:56.870Z,10.89
2022-11-22T13:42:12.358Z,10.86
2022-11-22T13:44:42.459Z,10.84
2022-11-22T13:47:03.488Z,10.83
2022-11-22T13:49:19.348Z,10.80
2022-11-22T13:51:56.953Z,10.77
2022-11-22T13:54:56.570Z,10.78
2022-11-22T13:57:07.433Z,10.79
2022-11-22T13:59:21.376Z,10.78
2022-11-22T14:02:00.478Z,10.74
2022-11-22T14:04:32.163Z,10.74
2022-11-22T14:06:38.568Z,10.77
2022-11-22T14:08:44.231Z,10.79
2022-11-22T14:11:17.656Z,10.75
2022-11-22T14:13:47.888Z,10.72
2022-11-22T14:16:36.651Z,10.66
2022-11-22T14:19:06.869Z,10.56
2022-11-22T14:21:26.581Z,10.50
2022-11-22T14:23:53.633Z,10.45
2022-11-22T14:26:19.816Z,10.43
2022-11-22T14:29:12.081Z,10.43
2022-11-22T14:31:28.585Z,10.39
2022-11-22T14:33:34.061Z,10.39
2022-11-22T14:35:42.134Z,10.36
2022-11-22T14:38:01.216Z,10.35
2022-11-22T14:40:33.741Z,10.29
2022-11-22T14:43:00.971Z,10.32
2022-11-22T14:45:23.589Z,10.28
2022-11-22T14:47:33.648Z,10.24
2022-11-22T14:49:49.027Z,10.20
2022-11-22T14:52:00.766Z,10.12
2022-11-22T14:54:24.673Z,10.04
2022-11-22T14:56:37.226Z,9.45
2022-11-22T14:59:06.531Z,9.94
2022-11-22T15:02:15.633Z,9.89
2022-11-22T15:09:19.371Z,9.90
2022-11-22T15:09:23.878Z,9.86
2022-11-22T15:11:04.612Z,9.84
2022-11-22T15:13:46.981Z,9.79
2022-11-22T15:57:39.167Z,9.06
2022-11-22T15:59:52.310Z,9.03
2022-11-22T16:02:03.194Z,9.04
2022-11-22T16:04:23.581Z,9.03
2022-11-22T16:06:33.811Z,9.03
2022-11-22T16:08:42.368Z,8.99
2022-11-22T16:10:54.496Z,8.99
2022-11-22T16:13:00.279Z,9.00
2022-11-22T16:15:36.436Z,8.99
2022-11-22T16:17:59.468Z,8.50
2022-11-22T16:20:36.909Z,9.02
2022-11-22T16:22:43.187Z,9.01
2022-11-22T16:24:51.363Z,8.99
2022-11-22T16:27:00.563Z,8.97
2022-11-22T16:29:32.431Z,8.96
2022-11-22T16:31:38.196Z,8.91
2022-11-22T16:33:44.369Z,8.87
2022-11-22T16:35:56.914Z,8.81
2022-11-22T16:38:03.452Z,8.83
2022-11-22T16:40:14.897Z,8.81
2022-11-22T16:42:21.497Z,8.83
2022-11-22T16:44:27.285Z,8.85
2022-11-22T16:46:32.904Z,8.85
2022-11-22T16:48:39.136Z,8.87
2022-11-22T16:50:45.163Z,8.88
2022-11-22T16:52:52.760Z,8.85
2022-11-22T16:54:58.954Z,8.81
2022-11-22T16:57:14.415Z,8.84
2022-11-22T16:59:19.851Z,8.87
2022-11-22T17:01:31.170Z,8.90
2022-11-22T17:03:42.181Z,8.92
2022-11-22T17:05:48.299Z,8.94
2022-11-22T17:07:54.719Z,8.94
2022-11-22T17:10:00.336Z,8.91
2022-11-22T17:12:23.522Z,8.97
2022-11-22T17:14:30.203Z,8.94
2022-11-22T17:16:35.831Z,8.95
2022-11-22T17:18:42.672Z,8.98
2022-11-22T17:20:49.503Z,8.99
2022-11-22T17:22:55.015Z,8.96
2022-11-22T17:25:00.617Z,8.95
2022-11-22T17:27:15.304Z,8.92
2022-11-22T17:29:49.935Z,8.92
2022-11-22T17:31:51.153Z,8.94
2022-11-22T17:34:00.551Z,8.96
2022-11-22T17:36:08.306Z,8.98
2022-11-22T17:38:15.320Z,8.97
2022-11-22T17:40:21.784Z,8.95
2022-11-22T17:42:29.961Z,8.92
2022-11-22T17:44:35.340Z,8.97
2022-11-22T17:46:41.650Z,8.95
2022-11-22T17:48:47.280Z,8.92
2022-11-22T17:50:52.658Z,8.91
2022-11-22T17:52:58.940Z,8.90
2022-11-22T17:55:06.326Z,8.92
2022-11-22T17:57:13.634Z,8.95
2022-11-22T17:59:22.934Z,8.92
2022-11-22T18:01:28.501Z,8.95
2022-11-22T18:03:34.299Z,8.96
2022-11-22T18:05:40.620Z,8.97
2022-11-22T18:07:46.556Z,9.00
2022-11-22T18:09:52.338Z,9.02
2022-11-22T18:11:58.595Z,9.02
2022-11-22T18:14:04.049Z,8.98
2022-11-22T18:16:18.310Z,9.04
2022-11-22T18:18:54.490Z,9.06
2022-11-22T18:20:51.420Z,9.03
2022-11-22T18:22:56.892Z,9.02
2022-11-22T18:25:05.293Z,8.97
2022-11-22T18:27:10.681Z,8.93
2022-11-22T18:29:41.163Z,8.70
2022-11-22T18:31:52.043Z,8.91
2022-11-22T18:33:58.541Z,8.90
2022-11-22T18:36:49.410Z,8.65
2022-11-22T18:38:35.089Z,8.93
2022-11-22T18:40:40.596Z,8.95
2022-11-22T18:42:46.319Z,8.95
2022-11-22T18:44:52.575Z,8.97
2022-11-22T18:47:00.712Z,8.99
2022-11-22T18:49:08.093Z,8.99
2022-11-22T18:51:14.351Z,9.01
2022-11-22T18:53:19.934Z,9.03
2022-11-22T18:55:25.318Z,9.06
2022-11-22T18:57:31.593Z,9.07
2022-11-22T18:59:36.989Z,9.05
2022-11-22T19:01:43.357Z,9.04
2022-11-22T19:03:52.674Z,9.05
2022-11-22T19:05:58.348Z,9.05
2022-11-22T19:08:03.731Z,9.00
2022-11-22T19:10:12.673Z,8.95
2022-11-22T19:12:18.584Z,8.93
2022-11-22T19:14:23.918Z,8.91
2022-11-22T19:16:30.784Z,8.91
2022-11-22T19:18:42.780Z,8.92
2022-11-22T19:20:55.571Z,8.91
2022-11-22T19:23:03.691Z,8.89
2022-11-22T19:25:11.345Z,8.87
2022-11-22T19:27:17.308Z,8.80
2022-11-22T19:29:23.983Z,8.78
2022-11-22T19:31:31.828Z,8.85
2022-11-22T19:33:37.269Z,8.86
2022-11-22T19:35:43.878Z,8.87
2022-11-22T19:37:52.582Z,8.86
2022-11-22T19:39:57.942Z,8.79
2022-11-22T19:42:04.239Z,8.85
2022-11-22T19:44:09.847Z,8.83
2022-11-22T19:46:16.685Z,8.83
2022-11-22T19:48:23.046Z,8.83
2022-11-22T19:50:28.461Z,8.84
2022-11-22T19:52:34.750Z,8.84
2022-11-22T19:54:43.931Z,8.83
2022-11-22T19:56:49.594Z,8.83
2022-11-22T19:58:57.556Z,8.82
2022-11-22T20:01:09.167Z,8.82
2022-11-22T20:03:16.461Z,8.82
2022-11-22T20:05:22.338Z,8.80
2022-11-22T20:07:28.641Z,8.82
2022-11-22T20:09:34.109Z,8.82
2022-11-22T20:11:45.635Z,8.82
2022-11-22T20:13:53.884Z,8.83
2022-11-22T20:16:00.053Z,8.82
2022-11-22T20:18:08.703Z,8.82
2022-11-22T20:20:15.128Z,8.82
2022-11-22T20:22:20.612Z,8.80
2022-11-22T20:24:27.721Z,8.81
2022-11-22T20:26:36.575Z,8.74
2022-11-22T20:28:47.697Z,8.68
2022-11-22T20:30:53.066Z,8.65
2022-11-22T20:33:00.005Z,8.60
2022-11-22T20:35:08.320Z,8.52
2022-11-22T20:37:13.726Z,8.46
2022-11-22T20:39:19.971Z,8.40
2022-11-22T20:41:29.397Z,8.38
2022-11-22T20:43:36.548Z,8.37
2022-11-22T20:45:46.116Z,8.32
2022-11-22T20:47:51.516Z,8.25
2022-11-22T20:49:56.870Z,8.23
2022-11-22T20:52:03.131Z,8.19
2022-11-22T20:54:09.742Z,8.17
2022-11-22T20:56:16.608Z,8.11
2022-11-22T20:58:23.074Z,8.01
2022-11-22T21:00:28.542Z,7.93
2022-11-22T21:02:37.151Z,7.87
2022-11-22T21:04:43.393Z,7.82
2022-11-22T21:06:49.629Z,7.77
2022-11-22T21:08:55.286Z,7.72
2022-11-22T21:11:10.102Z,7.68
2022-11-22T21:13:15.702Z,7.67
2022-11-22T21:15:21.228Z,7.61
2022-11-22T21:17:45.567Z,7.59
2022-11-22T21:19:55.576Z,7.59
2022-11-22T21:22:03.385Z,7.57
2022-11-22T21:24:11.232Z,7.47
2022-11-22T21:26:16.651Z,7.44
2022-11-22T21:28:22.330Z,7.34
2022-11-22T21:30:28.547Z,7.27
2022-11-22T21:32:34.928Z,7.24
2022-11-22T21:34:40.668Z,7.23
2022-11-22T21:36:50.032Z,7.17
2022-11-22T21:38:56.484Z,7.13
2022-11-22T21:41:32.255Z,7.10
2022-11-22T21:43:33.552Z,6.64
2022-11-22T21:45:38.931Z,6.99
2022-11-22T21:47:44.311Z,6.98
2022-11-22T21:49:51.464Z,6.95
2022-11-22T21:51:59.819Z,6.93
2022-11-22T21:54:08.318Z,6.63
2022-11-22T21:56:14.574Z,6.88
2022-11-22T21:58:20.337Z,6.84
2022-11-22T22:00:26.753Z,6.85
2022-11-22T22:02:34.395Z,6.81
2022-11-22T22:04:39.978Z,6.76
2022-11-22T22:06:46.379Z,6.69
2022-11-22T22:08:55.821Z,6.64
2022-11-22T22:11:04.130Z,6.62
2022-11-22T22:13:11.228Z,6.63
2022-11-22T22:15:18.646Z,6.60
2022-11-22T22:17:26.803Z,6.59
2022-11-22T22:19:33.007Z,6.57
2022-11-22T22:21:39.786Z,6.55
2022-11-22T22:23:46.843Z,6.53
2022-11-22T22:25:59.704Z,6.49
2022-11-22T22:28:07.504Z,6.41
2022-11-22T22:30:16.121Z,6.34
2022-11-22T22:32:21.528Z,6.29
2022-11-22T22:34:27.951Z,6.23
2022-11-22T22:36:33.350Z,6.16
2022-11-22T22:38:39.858Z,6.09
2022-11-22T22:40:46.487Z,6.05
2022-11-22T22:42:54.662Z,6.03
2022-11-22T22:45:00.271Z,6.02
2022-11-22T22:47:08.558Z,6.01
2022-11-22T22:49:14.027Z,5.98
2022-11-22T22:51:26.232Z,5.91
2022-11-22T22:53:38.173Z,5.88
2022-11-22T22:55:43.664Z,5.82
2022-11-22T22:57:49.029Z,5.80
2022-11-22T22:59:58.773Z,5.79
2022-11-22T23:02:04.802Z,5.80
2022-11-22T23:04:10.844Z,5.76
2022-11-22T23:06:17.088Z,5.75
2022-11-22T23:08:22.422Z,5.74
2022-11-22T23:10:28.060Z,5.74
2022-11-22T23:12:34.397Z,5.73
2022-11-22T23:14:40.262Z,5.71
2022-11-22T23:16:58.564Z,5.70
2022-11-22T23:19:06.977Z,5.67
2022-11-22T23:21:16.913Z,5.63
2022-11-22T23:23:22.361Z,5.62
2022-11-22T23:25:28.819Z,5.61
2022-11-22T23:27:34.215Z,5.60
2022-11-22T23:29:39.620Z,5.59
2022-11-22T23:31:54.953Z,5.57
2022-11-22T23:34:03.942Z,5.16
2022-11-22T23:36:13.394Z,5.58
2022-11-22T23:38:19.609Z,5.58
2022-11-22T23:40:25.056Z,5.57
2022-11-22T23:42:30.798Z,5.54
2022-11-22T23:44:37.034Z,5.54
2022-11-22T23:46:43.701Z,5.52
2022-11-22T23:48:57.635Z,5.52
2022-11-22T23:51:06.736Z,5.50
2022-11-22T23:53:12.479Z,5.52
2022-11-22T23:55:18.300Z,5.50
2022-11-22T23:57:24.996Z,5.46
2022-11-22T23:59:30.878Z,5.45
